• Join FlightAware (Why Join?)
  • Login
  • US Flag 
06:31PM EDT


 

Airport Tracker/Info


-or-


 

Live Flight TrackerFlight Track Log ✈ AAL1326 ✈ 03-May-2013 ✈ KORD - KFLL

Flight Track Log - Related Links

Times and Time Zones

All times are in EDT time to prevent confusion due to time zone crossing. See the AAL1326 flight status page for this flight to view local times or setup timezone preferences in your user account.

Time Position Orientation Groundspeed Altitude Reporting Facility
EDT Latitude Longitude Course Direction KTS MPH feet Rate Location/Type
09:30PM 41.7745 -87.7814 143° Southeast  Level Estimated
09:30PM 41.9500 -87.8390 143° Southeast 245 282 4,800  Level FlightAware
09:30PM 41.9170 -87.8410 183° South 248 285 5,000 60 Climbing FlightAware
09:31PM 41.8900 -87.8430 183° South 247 284 4,900 -120 Descending FlightAware
09:31PM 41.8550 -87.8440 181° South 245 282 4,900 600 Level FlightAware
09:32PM 41.8220 -87.8420 177° South 243 280 5,500 2,280 Climbing FlightAware
09:32PM 41.7920 -87.8330 167° South 250 288 7,000 3,600 Climbing FlightAware
09:33PM 41.7590 -87.8220 166° South 253 291 8,800 3,240 Climbing FlightAware
09:33PM 41.7100 -87.8080 168° South 270 311 10,800 3,000 Climbing FlightAware
09:34PM 41.6600 -87.7940 168° South 279 321 12,800 2,160 Climbing FlightAware
09:35PM 41.5990 -87.7760 168° South 331 381 13,900 2,160 Climbing FlightAware
09:35PM 41.5370 -87.7590 168° South 338 389 15,900 3,120 Climbing FlightAware
09:36PM 41.4690 -87.7390 168° South 334 384 18,400 2,580 Climbing FlightAware
09:37PM 41.4070 -87.7250 170° South 355 409 19,600 2,100 Climbing FlightAware
09:38PM 41.3320 -87.7250 180° South 364 419 21,400 1,800 Climbing FlightAware
09:38PM 41.2820 -87.7250 180° South 383 441 21,900 1,440 Climbing FlightAware
09:39PM 41.1610 -87.7200 178° South 402 463 23,700 1,680 Climbing FlightAware
09:40PM 41.0870 -87.7100 174° South 410 472 24,900 1,800 Climbing FlightAware
09:40PM 41.0110 -87.7000 174° South 413 475 26,100 1,680 Climbing FlightAware
09:41PM 40.9260 -87.6890 174° South 420 483 27,300 1,500 Climbing FlightAware
09:42PM 40.8560 -87.6790 174° South 426 490 28,100 1,260 Climbing FlightAware
09:43PM 40.7700 -87.6680 174° South 435 501 29,000 1,320 Climbing FlightAware
09:43PM 40.6660 -87.6540 174° South 439 505 30,200 1,500 Climbing FlightAware
09:44PM 40.5840 -87.6430 174° South 435 501 31,300 1,680 Climbing FlightAware
09:45PM 40.5060 -87.6330 174° South 427 491 32,500 1,680 Climbing FlightAware
09:45PM 40.4220 -87.6210 174° South 421 484 33,700 1,500 Climbing FlightAware
09:46PM 40.3390 -87.6100 174° South 416 479 34,700 1,320 Climbing FlightAware
09:47PM 40.2610 -87.5720 160° South 410 472 35,600 1,260 Climbing FlightAware
09:47PM 40.2100 -87.5330 150° Southeast 406 467 36,300 1,020 Climbing FlightAware
09:48PM 40.1420 -87.4470 136° Southeast 408 470 37,000 420 Climbing FlightAware
09:49PM 40.0840 -87.3750 136° Southeast 408 470 37,000  Level FlightAware
09:50PM 40.0320 -87.3220 142° Southeast 408 470 37,000  Level FlightAware
09:50PM 39.9560 -87.2470 143° Southeast 408 470 37,000  Level FlightAware
09:51PM 39.9080 -87.2110 150° Southeast 406 467 37,000  Level FlightAware
09:52PM 39.8180 -87.1670 159° South 405 466 37,000  Level FlightAware
09:53PM 39.7290 -87.1230 159° South 403 464 37,000  Level FlightAware
09:53PM 39.6440 -87.0830 160° South 403 464 37,000  Level FlightAware
09:54PM 39.5740 -87.0490 159° South 402 463 37,000  Level FlightAware
09:55PM 39.4940 -87.0100 159° South 402 463 37,000  Level FlightAware
09:55PM 39.4240 -86.9760 159° South 402 463 37,000  Level FlightAware
09:56PM 39.3550 -86.9420 159° South 403 464 37,000  Level FlightAware
09:57PM 39.2730 -86.9210 169° South 404 465 37,000  Level FlightAware
09:58PM 39.2000 -86.9050 170° South 403 464 37,000  Level FlightAware
09:58PM 39.1170 -86.8870 170° South 404 465 37,000  Level FlightAware
09:59PM 39.0410 -86.8700 170° South 405 466 37,000  Level FlightAware
10:00PM 38.9600 -86.8530 171° South 404 465 37,000  Level FlightAware
10:00PM 38.8850 -86.8370 171° South 404 465 37,000  Level FlightAware
10:01PM 38.8130 -86.8210 170° South 405 466 37,000  Level FlightAware
10:02PM 38.7340 -86.7860 161° South 405 466 37,000  Level FlightAware
10:02PM 38.6620 -86.7500 159° South 406 467 37,000  Level FlightAware
10:03PM 38.5950 -86.7170 159° South 407 468 37,000  Level FlightAware
10:04PM 38.5150 -86.6780 159° South 407 468 37,000  Level FlightAware
10:05PM 38.4440 -86.6430 159° South 407 468 37,000  Level FlightAware
10:05PM 38.3630 -86.6030 159° South 406 467 37,000  Level FlightAware
10:06PM 38.2960 -86.5710 159° South 406 467 37,000  Level FlightAware
10:07PM 38.2230 -86.5350 159° South 405 466 37,000  Level FlightAware
10:07PM 38.1530 -86.5010 159° South 403 464 37,000  Level FlightAware
10:08PM 38.0760 -86.4640 159° South 402 463 37,000  Level FlightAware
10:09PM 38.0070 -86.4300 159° South 401 461 37,000  Level FlightAware
10:09PM 37.9310 -86.3940 160° South 400 460 37,000  Level FlightAware
10:10PM 37.8620 -86.3600 159° South 400 460 37,000  Level FlightAware
10:11PM 37.7890 -86.3250 159° South 401 461 37,000  Level FlightAware
10:12PM 37.7140 -86.2890 159° South 401 461 37,000  Level FlightAware
10:12PM 37.6430 -86.2550 159° South 400 460 37,000  Level FlightAware
10:13PM 37.5670 -86.2190 159° South 400 460 37,000  Level FlightAware
10:13PM 37.5146 -86.1937 159° South 400 460 37,000  Level FlightAware ADS-B
10:14PM 37.4600 -86.1677 159° South 399 459 37,000  Level FlightAware ADS-B
10:14PM 37.4055 -86.1417 159° South 399 459 37,000  Level FlightAware ADS-B
10:15PM 37.3536 -86.1170 159° South 398 458 37,000  Level FlightAware ADS-B
10:15PM 37.3001 -86.0916 159° South 398 458 37,000  Level FlightAware ADS-B
10:16PM 37.2478 -86.0669 159° South 397 457 37,000  Level FlightAware ADS-B
10:17PM 37.1954 -86.0421 159° South 397 457 37,000  Level FlightAware ADS-B
10:17PM 37.1428 -86.0173 159° South 397 457 37,000  Level FlightAware ADS-B
10:18PM 37.0560 -85.9770 160° South 397 457 37,000  Level FlightAware
10:19PM 36.9857 -85.9433 159° South 398 458 37,000  Level FlightAware ADS-B
10:19PM 36.9304 -85.9173 159° South 398 458 37,000  Level FlightAware ADS-B
10:20PM 36.8783 -85.8929 159° South 399 459 37,000  Level FlightAware ADS-B
10:20PM 36.8261 -85.8685 159° South 399 459 37,000  Level FlightAware ADS-B
10:21PM 36.7738 -85.8440 159° South 398 458 37,000  Level FlightAware ADS-B
10:21PM 36.7220 -85.8198 159° South 398 458 37,000  Level FlightAware ADS-B
10:22PM 36.6611 -85.7914 159° South 398 458 37,000  Level FlightAware ADS-B
10:22PM 36.6064 -85.7660 160° South 399 459 37,000  Level FlightAware ADS-B
10:23PM 36.5529 -85.7413 160° South 399 459 37,000  Level FlightAware ADS-B
10:23PM 36.5006 -85.7169 159° South 398 458 37,000  Level FlightAware ADS-B
10:24PM 36.4484 -85.6927 160° South 398 458 37,000  Level FlightAware ADS-B
10:24PM 36.3920 -85.6667 160° South 398 458 37,000  Level FlightAware ADS-B
10:25PM 36.3379 -85.6418 160° South 399 459 37,000  Level FlightAware ADS-B
10:25PM 36.2852 -85.6175 160° South 399 459 37,000  Level FlightAware ADS-B
10:26PM 36.2316 -85.5927 160° South 399 459 37,000  Level FlightAware ADS-B
10:27PM 36.1588 -85.5589 159° South 400 460 37,000  Level FlightAware ADS-B
10:27PM 36.1067 -85.5351 160° South 400 460 37,000  Level FlightAware ADS-B
10:28PM 36.0544 -85.5113 160° South 401 461 37,000  Level FlightAware ADS-B
10:28PM 36.0007 -85.4868 160° South 403 464 37,000  Level FlightAware ADS-B
10:29PM 35.9479 -85.4626 160° South 403 464 37,000  Level FlightAware ADS-B
10:29PM 35.8948 -85.4384 160° South 404 465 37,000  Level FlightAware ADS-B
10:30PM 35.8423 -85.4146 160° South 404 465 37,000  Level FlightAware ADS-B
10:30PM 35.7874 -85.3895 160° South 405 466 37,000  Level FlightAware ADS-B
10:31PM 35.7330 -85.3647 160° South 405 466 37,000  Level FlightAware ADS-B
10:31PM 35.6701 -85.3362 160° South 406 467 37,000  Level FlightAware ADS-B
10:32PM 35.6157 -85.3116 160° South 408 470 37,000  Level FlightAware ADS-B
10:32PM 35.5617 -85.2871 160° South 409 471 37,000  Level FlightAware ADS-B
10:33PM 35.5081 -85.2628 160° South 409 471 37,000  Level FlightAware ADS-B
10:33PM 35.4543 -85.2386 160° South 409 471 37,000  Level FlightAware ADS-B
10:34PM 35.3970 -85.2130 160° South 410 472 37,000  Level FlightAware ADS-B
10:34PM 35.3243 -85.1804 160° South 410 472 37,000  Level FlightAware ADS-B
10:35PM 35.2105 -85.1291 160° South 411 473 37,000  Level FlightAware ADS-B
10:36PM 35.1558 -85.1046 160° South 411 473 37,000  Level FlightAware ADS-B
10:37PM 35.0674 -85.0653 160° South 409 471 37,000  Level FlightAware ADS-B
10:37PM 34.9983 -85.0345 160° South 406 467 37,000  Level FlightAware ADS-B
10:38PM 34.9243 -85.0016 160° South 406 467 37,000  Level FlightAware ADS-B
10:39PM 34.8700 -84.9770 160° South 398 458 37,000  Level FlightAware
10:39PM 34.8277 -84.9587 160° South 406 467 37,000  Level FlightAware ADS-B
10:40PM 34.7721 -84.9340 160° South 407 468 37,000  Level FlightAware ADS-B
10:40PM 34.7077 -84.9054 160° South 410 472 37,000  Level FlightAware ADS-B
10:41PM 34.6504 -84.8801 160° South 411 473 37,000  Level FlightAware ADS-B
10:41PM 34.5913 -84.8541 160° South 412 474 37,000  Level FlightAware ADS-B
10:42PM 34.5360 -84.8299 160° South 413 475 37,000  Level FlightAware ADS-B
10:42PM 34.4812 -84.8058 160° South 414 476 37,000  Level FlightAware ADS-B
10:43PM 34.4264 -84.7817 160° South 414 476 37,000  Level FlightAware ADS-B
10:43PM 34.3671 -84.7557 160° South 414 476 37,000  Level FlightAware ADS-B
10:44PM 34.2820 -84.7180 160° South 413 475 37,000  Level FlightAware
10:45PM 34.2190 -84.6910 160° South 414 476 37,000  Level FlightAware
10:46PM 34.1300 -84.6520 160° South 408 470 37,000  Level FlightAware
10:46PM 34.0570 -84.6210 161° South 408 470 37,000  Level FlightAware
10:47PM 33.9860 -84.5900 160° South 415 478 37,000  Level FlightAware
10:48PM 33.9140 -84.5560 159° South 414 476 37,000  Level FlightAware
10:48PM 33.8280 -84.5160 159° South 415 478 37,000  Level FlightAware
10:49PM 33.7530 -84.4810 159° South 413 475 37,000  Level FlightAware
10:50PM 33.6740 -84.4450 159° South 412 474 37,000  Level FlightAware
10:50PM 33.6190 -84.4196 159° South 412 474 37,000  Level FlightAware ADS-B
10:51PM 33.5604 -84.3927 159° South 412 474 37,000  Level FlightAware ADS-B
10:52PM 33.4450 -84.3400 159° South 414 476 37,000  Level FlightAware
10:52PM 33.4010 -84.3198 159° South 414 476 37,000  Level FlightAware ADS-B
10:53PM 33.3000 -84.2730 159° South 415 478 37,000  Level FlightAware
10:54PM 33.2240 -84.2390 159° South 416 479 37,000  Level FlightAware
10:55PM 33.1510 -84.2060 159° South 416 479 37,000  Level FlightAware
10:55PM 33.0690 -84.1690 159° South 417 480 37,000  Level FlightAware
10:56PM 32.9940 -84.1350 159° South 417 480 37,000  Level FlightAware
10:57PM 32.9210 -84.1020 159° South 419 482 37,000  Level FlightAware
10:58PM 32.8020 -84.0480 159° South 422 486 37,000  Level FlightAware
10:59PM 32.7260 -84.0130 159° South 422 486 37,000  Level FlightAware
10:59PM 32.6640 -83.9850 159° South 422 486 37,000  Level FlightAware
11:00PM 32.6180 -83.9640 159° South 422 486 37,000  Level FlightAware
11:01PM 32.5560 -83.9360 159° South 422 486 37,000  Level FlightAware
11:01PM 32.4940 -83.9070 158° South 422 486 37,000  Level FlightAware
11:02PM 32.4320 -83.8790 159° South 422 486 37,000  Level FlightAware
11:03PM 32.3700 -83.8510 159° South 422 486 37,000  Level FlightAware
11:03PM 32.2920 -83.8160 159° South 422 486 37,000  Level FlightAware
11:04PM 32.2300 -83.7880 159° South 422 486 37,000  Level FlightAware
11:05PM 32.1680 -83.7600 159° South 422 486 37,000  Level FlightAware
11:05PM 32.1060 -83.7310 158° South 422 486 37,000  Level FlightAware
11:06PM 32.0440 -83.7030 159° South 422 486 37,000  Level FlightAware
11:07PM 31.9670 -83.6680 159° South 422 486 37,000  Level FlightAware
11:08PM 31.9050 -83.6400 159° South 422 486 37,000  Level FlightAware
11:08PM 31.6928 -83.6056 159° South 432 497 37,000  Level Jacksonville Center
11:09PM 31.5697 -83.5681 165° South 437 503 37,000  Level Jacksonville Center
11:10PM 31.4572 -83.5356 166° South 437 503 37,000  Level Jacksonville Center
11:11PM 31.3403 -83.5008 166° South 431 496 37,000  Level Jacksonville Center
11:12PM 31.2214 -83.4658 166° South 431 496 37,000  Level Jacksonville Center
11:13PM 31.1028 -83.4289 165° South 431 496 37,000  Level Jacksonville Center
11:14PM 30.9881 -83.3967 166° South 431 496 37,000  Level Jacksonville Center
11:15PM 30.8692 -83.3597 165° South 436 502 37,000  Level Jacksonville Center
11:16PM 30.7522 -83.3228 165° South 436 502 37,000  Level Jacksonville Center
11:17PM 30.6314 -83.2861 165° South 436 502 37,000  Level Jacksonville Center
11:18PM 30.5083 -83.2494 166° South 436 502 37,000  Level Jacksonville Center
11:19PM 30.3892 -83.2153 166° South 441 507 37,000  Level Jacksonville Center
11:24PM 29.7060 -83.0140 166° South 37,000  Level FlightAware
11:25PM 29.6670 -83.0030 166° South 446 513 37,000  Level FlightAware
11:26PM 29.5750 -82.9760 166° South 447 514 37,000  Level FlightAware
11:26PM 29.4910 -82.9520 166° South 447 514 37,000  Level FlightAware
11:27PM 29.4100 -82.9280 166° South 447 514 37,000  Level FlightAware
11:28PM 29.3210 -82.9020 166° South 448 516 37,000  Level FlightAware
11:28PM 29.2380 -82.8780 166° South 449 517 37,000  Level FlightAware
11:29PM 29.1440 -82.8510 166° South 450 518 37,000  Level FlightAware
11:30PM 29.0730 -82.8300 166° South 450 518 37,000  Level FlightAware
11:30PM 28.9680 -82.8000 166° South 449 517 37,000  Level FlightAware
11:31PM 28.8800 -82.7750 166° South 457 526 37,000  Level FlightAware
11:32PM 28.8030 -82.7530 166° South 450 518 37,000  Level FlightAware
11:33PM 28.7110 -82.7260 166° South 450 518 37,000  Level FlightAware
11:33PM 28.6280 -82.7030 166° South 449 517 37,000  Level FlightAware
11:34PM 28.5380 -82.6770 166° South 449 517 37,000  Level FlightAware
11:35PM 28.4510 -82.6520 166° South 449 517 37,000  Level FlightAware
11:35PM 28.3680 -82.6290 166° South 448 516 37,000  Level FlightAware
11:36PM 28.2750 -82.6020 166° South 448 516 37,000  Level FlightAware
11:37PM 28.2140 -82.5850 166° South 449 517 37,000  Level FlightAware
11:37PM 28.1020 -82.5530 166° South 456 525 37,000  Level FlightAware
11:38PM 28.0180 -82.5290 166° South 456 525 37,000  Level FlightAware
11:39PM 27.9370 -82.5040 165° South 460 529 37,000  Level FlightAware
11:40PM 27.8480 -82.4710 162° South 459 528 37,000 -240 Level FlightAware
11:40PM 27.7630 -82.4400 162° South 459 528 36,700 -1,200 Descending FlightAware
11:41PM 27.6850 -82.4110 162° South 463 533 35,400 -2,340 Descending FlightAware
11:42PM 27.5920 -82.3770 162° South 466 536 33,400 -2,520 Descending FlightAware
11:42PM 27.5130 -82.3480 162° South 457 526 31,900 -1,740 Descending FlightAware
11:43PM 27.4230 -82.3070 158° South 465 535 31,000 -660 Descending FlightAware
11:44PM 27.3520 -82.2420 141° Southeast 488 562 31,000  Level FlightAware
11:44PM 27.2790 -82.1670 138° Southeast 491 565 31,000  Level FlightAware
11:45PM 27.2140 -82.0990 137° Southeast 486 559 31,000  Level FlightAware
11:46PM 27.1200 -82.0020 137° Southeast 493 567 31,000 -780 Level FlightAware
11:47PM 27.0530 -81.9330 137° Southeast 488 562 29,800 -2,280 Descending FlightAware
11:47PM 26.9780 -81.8550 137° Southeast 475 547 27,800 -2,580 Descending FlightAware
11:48PM 26.9150 -81.7910 138° Southeast 464 534 26,200 -2,100 Descending FlightAware
11:49PM 26.7980 -81.6700 137° Southeast 437 503 23,600 -2,160 Descending FlightAware
11:50PM 26.7300 -81.6010 138° Southeast 433 498 21,700 -2,580 Descending FlightAware
11:53PM 26.4830 -81.4750 155° Southeast 389 448 15,500 -2,580 Descending FlightAware
11:53PM 26.4280 -81.4160 136° Southeast 385 443 13,800 -2,340 Descending FlightAware
11:54PM 26.3890 -81.3620 129° Southeast 377 434 12,400 -1,800 Descending FlightAware
11:55PM 26.3460 -81.3010 128° Southeast 362 417 11,400 -900 Descending FlightAware
11:55PM 26.2980 -81.2340 129° Southeast 315 362 11,200 -840 Descending FlightAware
11:57PM 26.2330 -81.1440 129° Southeast 310 357 9,900 -1,200 Descending FlightAware
11:57PM 26.2100 -81.1130 130° Southeast 305 351 9,300 -1,200 Descending FlightAware
11:58PM 26.1710 -81.0600 129° Southeast 291 335 8,500 -1,080 Descending FlightAware
11:58PM 26.1440 -81.0230 129° Southeast 291 335 8,000 -1,080 Descending FlightAware
11:59PM 26.1110 -80.9750 127° Southeast 287 330 7,300 -1,020 Descending FlightAware
11:59PM 26.1040 -80.9540 110° East 293 337 7,100 -900 Descending FlightAware
11:59PM 26.1010 -80.9250 97° East 295 339 6,800 -960 Descending FlightAware
12:01AM 26.1080 -80.8190 86° East 284 327 5,600 -1,020 Descending FlightAware
12:01AM 26.1100 -80.7960 84° East 283 326 5,300 -900 Descending FlightAware
12:01AM 26.1120 -80.7670 86° East 280 322 5,100 -180 Descending FlightAware
12:02AM 26.1180 -80.6970 85° East 273 314 5,100  Level FlightAware
12:02AM 26.1200 -80.6760 84° East 257 296 5,100 60 Level FlightAware
12:03AM 26.1260 -80.6080 84° East 237 273 5,200 60 Climbing FlightAware
12:04AM 26.1280 -80.5770 86° East 236 272 5,200  Level FlightAware
12:04AM 26.1340 -80.5230 83° East 236 272 5,200  Level FlightAware
12:05AM 26.1360 -80.5050 83° East 235 270 5,200 -600 Level FlightAware
12:06AM 26.1410 -80.4400 85° East 237 273 4,500 -720 Descending FlightAware
12:06AM 26.1430 -80.4220 83° East 232 267 4,400 -1,140 Descending FlightAware
12:07AM 26.1470 -80.3570 86° East 219 252 3,200 -1,080 Descending FlightAware
12:07AM 26.1490 -80.3240 86° East 199 229 2,900 -900 Descending FlightAware
12:08AM 26.1470 -80.2850 93° East 193 222 2,200 -900 Descending FlightAware
12:08AM 26.1430 -80.2700 107° East 190 219 2,100  Descending FlightAware
12:09AM 26.1380 -80.2510 106° East 189 217 2,200 -660 Climbing FlightAware
12:09AM 26.1280 -80.2190 109° East 185 213 1,500 -1,020 Descending FlightAware
12:10AM 26.1140 -80.1980 127° Southeast 162 186 1,100 -780 Descending FlightAware
12:11AM 26.0860 -80.1690 137° Southeast 137 158 400 -600 Descending FlightAware
12:11AM 26.0730 -80.1540 134° Southeast 142 163 300 -240 Descending FlightAware